createdAt,value
2023-10-20T00:00:00.200Z,352.5
2023-10-20T00:05:00.161Z,2.5
2023-10-20T00:10:00.161Z,7.5
2023-10-20T00:15:00.181Z,12.5
2023-10-20T00:20:00.242Z,20
2023-10-20T00:25:00.183Z,12.5
2023-10-20T00:30:00.176Z,352.5
2023-10-20T00:35:00.215Z,0
2023-10-20T00:40:00.164Z,342.5
2023-10-20T00:45:00.165Z,7.5
2023-10-20T00:50:00.177Z,10
2023-10-20T00:55:00.152Z,340
2023-10-20T01:00:00.210Z,317.5
2023-10-20T01:05:00.197Z,325
2023-10-20T01:10:00.193Z,25
2023-10-20T01:15:00.154Z,57.5
2023-10-20T01:20:00.178Z,25
2023-10-20T01:25:00.163Z,32.5
2023-10-20T01:30:00.155Z,30
2023-10-20T01:35:00.179Z,357.5
2023-10-20T01:40:00.204Z,42.5
2023-10-20T01:45:00.204Z,10
2023-10-20T01:50:00.198Z,55
2023-10-20T01:55:00.202Z,35
2023-10-20T02:00:00.195Z,55
2023-10-20T02:05:00.201Z,60
2023-10-20T02:10:00.156Z,60
2023-10-20T02:15:00.138Z,50
2023-10-20T02:20:00.186Z,50
2023-10-20T02:25:00.150Z,37.5
2023-10-20T02:30:00.202Z,30
2023-10-20T02:35:00.186Z,45
2023-10-20T02:40:00.169Z,62.5
2023-10-20T02:45:00.184Z,45
2023-10-20T02:50:00.217Z,45
2023-10-20T02:55:00.159Z,62.5
2023-10-20T03:00:00.195Z,52.5
2023-10-20T03:05:00.261Z,50
2023-10-20T03:10:00.176Z,55
2023-10-20T03:15:00.161Z,55
2023-10-20T03:20:00.232Z,50
2023-10-20T03:25:00.142Z,45
2023-10-20T03:30:00.163Z,72.5
2023-10-20T03:35:00.153Z,45
2023-10-20T03:40:00.187Z,25
2023-10-20T03:45:00.165Z,22.5
2023-10-20T03:50:00.140Z,50
2023-10-20T03:55:00.158Z,32.5
2023-10-20T04:00:00.155Z,20
2023-10-20T04:05:00.164Z,30
2023-10-20T04:10:00.178Z,32.5
2023-10-20T04:15:00.136Z,37.5
2023-10-20T04:20:00.177Z,37.5
2023-10-20T04:25:00.159Z,52.5
2023-10-20T04:30:00.191Z,55
2023-10-20T04:35:00.137Z,57.5
2023-10-20T04:40:00.216Z,30
2023-10-20T04:45:00.114Z,70
2023-10-20T04:50:00.167Z,60
2023-10-20T04:55:00.143Z,355
2023-10-20T05:00:00.137Z,40
2023-10-20T05:05:00.121Z,50
2023-10-20T05:10:00.129Z,47.5
2023-10-20T05:15:00.125Z,50
2023-10-20T05:20:00.145Z,35
2023-10-20T05:25:00.111Z,62.5
2023-10-20T05:30:00.183Z,70
2023-10-20T05:35:00.123Z,65
2023-10-20T05:40:00.132Z,70
2023-10-20T05:45:02.519Z,70
2023-10-20T05:50:00.168Z,57.5
2023-10-20T05:55:00.130Z,52.5
2023-10-20T06:00:00.163Z,55
2023-10-20T06:05:00.149Z,60
2023-10-20T06:10:00.149Z,50
2023-10-20T06:15:00.138Z,35
2023-10-20T06:20:00.354Z,50
2023-10-20T06:25:00.146Z,50
2023-10-20T06:30:00.198Z,50
2023-10-20T06:35:00.125Z,57.5
2023-10-20T06:40:00.142Z,45
2023-10-20T06:45:00.156Z,50
2023-10-20T06:50:00.169Z,25
2023-10-20T06:55:30.481Z,30
2023-10-20T07:00:00.177Z,35
2023-10-20T07:05:00.149Z,40
2023-10-20T07:10:00.183Z,50
2023-10-20T07:15:00.148Z,42.5
2023-10-20T07:20:00.146Z,50
2023-10-20T07:25:00.141Z,50
2023-10-20T07:30:00.212Z,45
2023-10-20T07:35:00.119Z,20
2023-10-20T07:40:00.146Z,17.5
2023-10-20T07:45:00.146Z,45
2023-10-20T07:50:00.143Z,32.5
2023-10-20T07:55:00.123Z,20
2023-10-20T08:00:00.133Z,22.5
2023-10-20T08:05:00.350Z,30
2023-10-20T08:10:00.163Z,30
2023-10-20T08:15:00.143Z,25
2023-10-20T08:20:00.148Z,17.5
2023-10-20T08:25:00.151Z,17.5
2023-10-20T08:30:00.130Z,15
2023-10-20T08:35:00.276Z,30
2023-10-20T08:40:00.118Z,30
2023-10-20T08:45:00.141Z,47.5
2023-10-20T08:50:00.120Z,50
2023-10-20T08:55:00.109Z,72.5
2023-10-20T09:00:00.218Z,70
2023-10-20T09:05:00.136Z,52.5
2023-10-20T09:10:00.135Z,62.5
2023-10-20T09:15:00.181Z,55
2023-10-20T09:20:00.140Z,50
2023-10-20T09:25:00.230Z,60
2023-10-20T09:30:00.144Z,65
2023-10-20T09:35:00.129Z,52.5
2023-10-20T09:40:00.154Z,57.5
2023-10-20T09:45:00.174Z,55
2023-10-20T09:50:00.160Z,60
2023-10-20T09:55:00.170Z,57.5
2023-10-20T10:00:00.198Z,52.5
2023-10-20T10:05:00.116Z,60
2023-10-20T10:10:00.123Z,50
2023-10-20T10:15:00.217Z,57.5
2023-10-20T10:20:00.169Z,52.5
2023-10-20T10:25:00.111Z,60
2023-10-20T10:30:00.190Z,57.5
2023-10-20T10:35:00.332Z,52.5
2023-10-20T10:40:00.116Z,85
2023-10-20T10:45:00.169Z,155
2023-10-20T10:50:00.163Z,120
2023-10-20T10:55:00.126Z,187.5
2023-10-20T11:00:01.948Z,177.5
2023-10-20T11:05:00.129Z,145
2023-10-20T11:10:00.167Z,105
2023-10-20T11:15:00.266Z,125
2023-10-20T11:20:00.137Z,172.5
2023-10-20T11:25:00.139Z,120
2023-10-20T11:30:00.217Z,132.5
2023-10-20T11:35:00.108Z,137.5
2023-10-20T11:40:00.157Z,172.5
2023-10-20T11:45:00.204Z,142.5
2023-10-20T11:50:00.140Z,157.5
2023-10-20T12:00:00.199Z,160
2023-10-20T12:05:00.177Z,145
2023-10-20T12:10:00.177Z,162.5
2023-10-20T12:15:00.217Z,182.5
2023-10-20T12:20:00.155Z,167.5
2023-10-20T12:25:00.146Z,175
2023-10-20T12:30:00.207Z,177.5
2023-10-20T12:35:00.206Z,192.5
2023-10-20T12:40:00.186Z,195
2023-10-20T12:45:00.236Z,185
2023-10-20T12:50:00.158Z,207.5
2023-10-20T12:55:00.145Z,215
2023-10-20T13:00:00.197Z,215
2023-10-20T13:05:00.136Z,215
2023-10-20T13:10:00.165Z,222.5
2023-10-20T13:15:00.230Z,212.5
2023-10-20T13:20:00.165Z,210
2023-10-20T13:25:00.133Z,207.5
2023-10-20T13:30:00.231Z,205
2023-10-20T13:35:00.143Z,215
2023-10-20T13:40:00.182Z,235
2023-10-20T13:45:00.184Z,217.5
2023-10-20T13:50:00.134Z,225
2023-10-20T13:55:00.139Z,222.5
2023-10-20T14:00:00.195Z,235
2023-10-20T14:05:00.152Z,222.5
2023-10-20T14:10:00.144Z,225
2023-10-20T14:15:00.237Z,217.5
2023-10-20T14:20:00.220Z,217.5
2023-10-20T14:25:00.153Z,225
2023-10-20T14:30:00.250Z,225
2023-10-20T14:35:00.860Z,220
2023-10-20T14:40:00.130Z,220
2023-10-20T14:45:00.184Z,215
2023-10-20T14:50:00.129Z,217.5
2023-10-20T14:55:00.150Z,225
2023-10-20T15:00:00.185Z,230
2023-10-20T15:05:02.099Z,230
2023-10-20T15:10:00.132Z,235
2023-10-20T15:15:00.196Z,235
2023-10-20T15:20:00.177Z,225
2023-10-20T15:25:00.201Z,230
2023-10-20T15:30:00.397Z,232.5
2023-10-20T15:35:00.150Z,227.5
2023-10-20T15:45:00.209Z,230
2023-10-20T15:50:00.184Z,227.5
2023-10-20T15:55:00.146Z,227.5
2023-10-20T16:00:00.265Z,230
2023-10-20T16:05:00.155Z,235
2023-10-20T16:10:00.185Z,250
2023-10-20T16:15:00.181Z,252.5
2023-10-20T16:20:00.167Z,260
2023-10-20T16:25:00.324Z,247.5
2023-10-20T16:30:00.288Z,235
2023-10-20T16:35:00.133Z,225
2023-10-20T16:40:00.157Z,220
2023-10-20T16:45:00.248Z,227.5
2023-10-20T16:50:00.218Z,225
2023-10-20T16:55:00.144Z,230
2023-10-20T17:00:00.226Z,227.5
2023-10-20T17:05:00.210Z,220
2023-10-20T17:10:00.156Z,232.5
2023-10-20T17:15:00.196Z,222.5
2023-10-20T17:20:00.206Z,215
2023-10-20T17:25:00.164Z,215
2023-10-20T17:30:00.209Z,210
2023-10-20T17:35:00.151Z,210
2023-10-20T17:40:00.220Z,210
2023-10-20T17:45:00.267Z,207.5
2023-10-20T17:50:00.229Z,205
2023-10-20T17:55:00.123Z,207.5
2023-10-20T18:00:00.213Z,207.5
2023-10-20T18:05:00.181Z,207.5
2023-10-20T18:10:00.146Z,220
2023-10-20T18:15:00.203Z,215
2023-10-20T18:20:00.183Z,217.5
2023-10-20T18:25:00.155Z,217.5
2023-10-20T18:30:00.192Z,200
2023-10-20T18:35:00.176Z,200
2023-10-20T18:40:00.170Z,200
2023-10-20T18:45:00.252Z,202.5
2023-10-20T18:50:00.173Z,212.5
2023-10-20T18:55:00.157Z,202.5
2023-10-20T19:00:00.180Z,182.5
2023-10-20T19:05:00.138Z,185
2023-10-20T19:10:00.143Z,197.5
2023-10-20T19:15:00.212Z,212.5
2023-10-20T19:20:00.221Z,222.5
2023-10-20T19:25:00.151Z,225
2023-10-20T19:30:00.204Z,215
2023-10-20T19:35:00.163Z,210
2023-10-20T19:40:00.171Z,195
2023-10-20T19:45:00.241Z,197.5
2023-10-20T19:50:00.156Z,197.5
2023-10-20T19:55:00.143Z,185
2023-10-20T20:00:00.222Z,185
2023-10-20T20:05:00.180Z,195
2023-10-20T20:10:00.130Z,205
2023-10-20T20:15:00.279Z,217.5
2023-10-20T20:20:00.166Z,217.5
2023-10-20T20:25:00.138Z,205
2023-10-20T20:30:00.185Z,207.5
2023-10-20T20:35:00.139Z,220
2023-10-20T20:40:00.161Z,217.5
2023-10-20T20:45:00.198Z,210
2023-10-20T20:50:00.166Z,205
2023-10-20T20:55:00.247Z,202.5
2023-10-20T21:00:00.277Z,220
2023-10-20T21:05:00.153Z,220
2023-10-20T21:10:00.164Z,220
2023-10-20T21:15:00.201Z,220
2023-10-20T21:20:00.238Z,162.5
2023-10-20T21:25:00.161Z,157.5
2023-10-20T21:30:00.200Z,125
2023-10-20T21:35:00.096Z,127.5
2023-10-20T21:40:00.134Z,190
2023-10-20T21:45:00.162Z,225
2023-10-20T21:50:00.152Z,225
2023-10-20T21:55:00.108Z,212.5
2023-10-20T22:00:00.133Z,187.5
2023-10-20T22:05:00.118Z,195
2023-10-20T22:10:00.101Z,215
2023-10-20T22:15:00.183Z,217.5
2023-10-20T22:20:00.119Z,222.5
2023-10-20T22:25:00.157Z,220
2023-10-20T22:30:00.202Z,220
2023-10-20T22:35:02.442Z,215
2023-10-20T22:40:00.157Z,190
2023-10-20T22:45:00.176Z,190
2023-10-20T22:50:00.133Z,190
2023-10-20T22:55:00.117Z,190
2023-10-20T23:00:00.425Z,190
2023-10-20T23:05:00.150Z,190
2023-10-20T23:10:00.194Z,192.5
2023-10-20T23:15:00.197Z,195
2023-10-20T23:20:00.159Z,195
2023-10-20T23:25:00.154Z,217.5
2023-10-20T23:30:00.154Z,202.5
2023-10-20T23:35:00.142Z,207.5
2023-10-20T23:40:00.186Z,197.5
2023-10-20T23:45:00.210Z,200
2023-10-20T23:50:00.154Z,187.5
2023-10-20T23:55:00.169Z,182.5
